sensor_id;sensor_type;location;lat;lon;timestamp;P1;durP1;ratioP1;P2;durP2;ratioP2
76256;SDS011;65074;50.436;8.672;2023-04-15T00:01:53;4.03;;;2.63;;
76256;SDS011;65074;50.436;8.672;2023-04-15T00:04:19;6.82;;;3.25;;
76256;SDS011;65074;50.436;8.672;2023-04-15T00:06:49;5.03;;;2.88;;
76256;SDS011;65074;50.436;8.672;2023-04-15T00:09:14;4.10;;;2.08;;
76256;SDS011;65074;50.436;8.672;2023-04-15T00:11:39;3.50;;;2.50;;
76256;SDS011;65074;50.436;8.672;2023-04-15T00:14:04;6.27;;;3.23;;
76256;SDS011;65074;50.436;8.672;2023-04-15T00:16:31;4.35;;;2.70;;
76256;SDS011;65074;50.436;8.672;2023-04-15T00:18:56;6.53;;;2.40;;
76256;SDS011;65074;50.436;8.672;2023-04-15T00:21:21;7.43;;;2.93;;
76256;SDS011;65074;50.436;8.672;2023-04-15T00:23:47;5.30;;;3.73;;
76256;SDS011;65074;50.436;8.672;2023-04-15T00:26:16;4.82;;;2.78;;
76256;SDS011;65074;50.436;8.672;2023-04-15T00:28:45;2.97;;;2.38;;
76256;SDS011;65074;50.436;8.672;2023-04-15T00:31:10;4.95;;;2.97;;
76256;SDS011;65074;50.436;8.672;2023-04-15T00:33:36;6.88;;;3.00;;
76256;SDS011;65074;50.436;8.672;2023-04-15T00:36:01;4.68;;;2.70;;
76256;SDS011;65074;50.436;8.672;2023-04-15T00:38:27;5.68;;;3.20;;
76256;SDS011;65074;50.436;8.672;2023-04-15T00:40:53;5.63;;;3.22;;
76256;SDS011;65074;50.436;8.672;2023-04-15T00:43:19;4.38;;;3.38;;
76256;SDS011;65074;50.436;8.672;2023-04-15T00:45:44;6.67;;;2.87;;
76256;SDS011;65074;50.436;8.672;2023-04-15T00:48:11;5.63;;;3.33;;
76256;SDS011;65074;50.436;8.672;2023-04-15T00:50:36;9.00;;;3.20;;
76256;SDS011;65074;50.436;8.672;2023-04-15T00:53:01;6.37;;;3.13;;
76256;SDS011;65074;50.436;8.672;2023-04-15T00:55:26;5.23;;;3.10;;
76256;SDS011;65074;50.436;8.672;2023-04-15T00:57:52;6.03;;;3.70;;
76256;SDS011;65074;50.436;8.672;2023-04-15T01:00:17;7.18;;;3.95;;
76256;SDS011;65074;50.436;8.672;2023-04-15T01:02:44;6.55;;;4.10;;
76256;SDS011;65074;50.436;8.672;2023-04-15T01:05:10;6.53;;;3.90;;
76256;SDS011;65074;50.436;8.672;2023-04-15T01:07:35;6.82;;;3.47;;
76256;SDS011;65074;50.436;8.672;2023-04-15T01:10:01;6.80;;;3.50;;
76256;SDS011;65074;50.436;8.672;2023-04-15T01:12:27;6.85;;;3.88;;
76256;SDS011;65074;50.436;8.672;2023-04-15T01:14:53;9.48;;;3.92;;
76256;SDS011;65074;50.436;8.672;2023-04-15T01:17:19;6.45;;;3.50;;
76256;SDS011;65074;50.436;8.672;2023-04-15T01:19:45;5.32;;;3.50;;
76256;SDS011;65074;50.436;8.672;2023-04-15T01:22:10;8.30;;;3.78;;
76256;SDS011;65074;50.436;8.672;2023-04-15T01:24:36;6.55;;;3.92;;
76256;SDS011;65074;50.436;8.672;2023-04-15T01:27:02;6.00;;;3.58;;
76256;SDS011;65074;50.436;8.672;2023-04-15T01:29:29;7.70;;;3.75;;
76256;SDS011;65074;50.436;8.672;2023-04-15T01:31:55;5.47;;;3.42;;
76256;SDS011;65074;50.436;8.672;2023-04-15T01:34:20;7.25;;;4.03;;
76256;SDS011;65074;50.436;8.672;2023-04-15T01:36:46;8.07;;;3.78;;
76256;SDS011;65074;50.436;8.672;2023-04-15T01:39:12;8.95;;;4.35;;
76256;SDS011;65074;50.436;8.672;2023-04-15T01:41:37;6.82;;;3.35;;
76256;SDS011;65074;50.436;8.672;2023-04-15T01:44:03;5.93;;;3.70;;
76256;SDS011;65074;50.436;8.672;2023-04-15T01:46:28;5.70;;;4.18;;
76256;SDS011;65074;50.436;8.672;2023-04-15T01:48:54;7.78;;;4.05;;
76256;SDS011;65074;50.436;8.672;2023-04-15T01:51:19;4.72;;;3.33;;
76256;SDS011;65074;50.436;8.672;2023-04-15T01:53:47;7.10;;;4.10;;
76256;SDS011;65074;50.436;8.672;2023-04-15T01:56:13;7.10;;;3.60;;
76256;SDS011;65074;50.436;8.672;2023-04-15T01:58:38;6.97;;;4.77;;
76256;SDS011;65074;50.436;8.672;2023-04-15T02:01:04;5.40;;;3.92;;
76256;SDS011;65074;50.436;8.672;2023-04-15T02:03:30;7.22;;;3.60;;
76256;SDS011;65074;50.436;8.672;2023-04-15T02:05:55;7.13;;;4.10;;
76256;SDS011;65074;50.436;8.672;2023-04-15T02:08:21;6.53;;;3.97;;
76256;SDS011;65074;50.436;8.672;2023-04-15T02:10:46;7.03;;;3.50;;
76256;SDS011;65074;50.436;8.672;2023-04-15T02:13:12;3.88;;;2.17;;
76256;SDS011;65074;50.436;8.672;2023-04-15T02:15:37;6.82;;;3.33;;
76256;SDS011;65074;50.436;8.672;2023-04-15T02:18:03;6.47;;;3.15;;
76256;SDS011;65074;50.436;8.672;2023-04-15T02:20:28;4.93;;;3.03;;
76256;SDS011;65074;50.436;8.672;2023-04-15T02:22:56;5.50;;;3.20;;
76256;SDS011;65074;50.436;8.672;2023-04-15T02:25:21;5.30;;;3.55;;
76256;SDS011;65074;50.436;8.672;2023-04-15T02:27:47;3.70;;;2.65;;
76256;SDS011;65074;50.436;8.672;2023-04-15T02:30:15;4.60;;;3.45;;
76256;SDS011;65074;50.436;8.672;2023-04-15T02:32:41;6.20;;;3.45;;
76256;SDS011;65074;50.436;8.672;2023-04-15T02:35:08;7.20;;;3.17;;
76256;SDS011;65074;50.436;8.672;2023-04-15T02:37:34;5.82;;;3.38;;
76256;SDS011;65074;50.436;8.672;2023-04-15T02:40:09;6.90;;;3.75;;
76256;SDS011;65074;50.436;8.672;2023-04-15T02:42:38;5.28;;;3.30;;
76256;SDS011;65074;50.436;8.672;2023-04-15T02:45:04;6.63;;;3.50;;
76256;SDS011;65074;50.436;8.672;2023-04-15T02:47:35;5.30;;;3.22;;
76256;SDS011;65074;50.436;8.672;2023-04-15T02:50:03;6.05;;;3.47;;
76256;SDS011;65074;50.436;8.672;2023-04-15T02:52:29;4.90;;;3.30;;
76256;SDS011;65074;50.436;8.672;2023-04-15T02:54:55;7.13;;;3.58;;
76256;SDS011;65074;50.436;8.672;2023-04-15T02:57:25;7.47;;;3.50;;
76256;SDS011;65074;50.436;8.672;2023-04-15T02:59:50;4.32;;;3.08;;
76256;SDS011;65074;50.436;8.672;2023-04-15T03:02:16;5.60;;;3.80;;
76256;SDS011;65074;50.436;8.672;2023-04-15T03:04:41;7.83;;;3.57;;
76256;SDS011;65074;50.436;8.672;2023-04-15T03:07:06;5.07;;;3.40;;
76256;SDS011;65074;50.436;8.672;2023-04-15T03:09:32;3.93;;;2.80;;
76256;SDS011;65074;50.436;8.672;2023-04-15T03:11:59;6.03;;;3.28;;
76256;SDS011;65074;50.436;8.672;2023-04-15T03:14:24;7.57;;;4.13;;
76256;SDS011;65074;50.436;8.672;2023-04-15T03:16:49;4.85;;;3.67;;
76256;SDS011;65074;50.436;8.672;2023-04-15T03:19:16;5.88;;;3.88;;
76256;SDS011;65074;50.436;8.672;2023-04-15T03:21:42;7.28;;;3.67;;
76256;SDS011;65074;50.436;8.672;2023-04-15T03:24:07;4.60;;;3.20;;
76256;SDS011;65074;50.436;8.672;2023-04-15T03:26:33;5.15;;;3.25;;
76256;SDS011;65074;50.436;8.672;2023-04-15T03:29:01;5.60;;;3.50;;
76256;SDS011;65074;50.436;8.672;2023-04-15T03:31:27;5.18;;;3.22;;
76256;SDS011;65074;50.436;8.672;2023-04-15T03:33:52;7.40;;;3.83;;
76256;SDS011;65074;50.436;8.672;2023-04-15T03:36:17;4.40;;;2.90;;
76256;SDS011;65074;50.436;8.672;2023-04-15T03:38:42;5.53;;;3.27;;
76256;SDS011;65074;50.436;8.672;2023-04-15T03:41:07;4.93;;;3.40;;
76256;SDS011;65074;50.436;8.672;2023-04-15T03:43:33;5.43;;;3.50;;
76256;SDS011;65074;50.436;8.672;2023-04-15T03:45:58;5.95;;;3.50;;
76256;SDS011;65074;50.436;8.672;2023-04-15T03:48:24;8.52;;;3.33;;
76256;SDS011;65074;50.436;8.672;2023-04-15T03:50:49;5.57;;;3.47;;
76256;SDS011;65074;50.436;8.672;2023-04-15T03:53:15;6.18;;;3.85;;
76256;SDS011;65074;50.436;8.672;2023-04-15T03:55:40;5.65;;;3.53;;
76256;SDS011;65074;50.436;8.672;2023-04-15T03:58:05;6.18;;;3.67;;
76256;SDS011;65074;50.436;8.672;2023-04-15T04:00:31;5.50;;;3.60;;
76256;SDS011;65074;50.436;8.672;2023-04-15T04:02:56;5.65;;;3.45;;
76256;SDS011;65074;50.436;8.672;2023-04-15T04:05:21;6.13;;;3.93;;
76256;SDS011;65074;50.436;8.672;2023-04-15T04:07:47;6.82;;;3.65;;
76256;SDS011;65074;50.436;8.672;2023-04-15T04:10:12;5.47;;;2.67;;
76256;SDS011;65074;50.436;8.672;2023-04-15T04:12:37;4.87;;;2.83;;
76256;SDS011;65074;50.436;8.672;2023-04-15T04:15:03;6.17;;;3.37;;
76256;SDS011;65074;50.436;8.672;2023-04-15T04:17:28;6.35;;;3.83;;
76256;SDS011;65074;50.436;8.672;2023-04-15T04:19:53;4.67;;;3.13;;
76256;SDS011;65074;50.436;8.672;2023-04-15T04:22:22;6.30;;;3.47;;
76256;SDS011;65074;50.436;8.672;2023-04-15T04:24:48;6.35;;;3.55;;
76256;SDS011;65074;50.436;8.672;2023-04-15T04:27:13;8.10;;;3.60;;
76256;SDS011;65074;50.436;8.672;2023-04-15T04:29:38;6.23;;;3.30;;
76256;SDS011;65074;50.436;8.672;2023-04-15T04:32:04;6.90;;;3.73;;
76256;SDS011;65074;50.436;8.672;2023-04-15T04:34:29;6.35;;;3.42;;
76256;SDS011;65074;50.436;8.672;2023-04-15T04:36:54;8.80;;;3.60;;
76256;SDS011;65074;50.436;8.672;2023-04-15T04:39:20;7.60;;;3.80;;
76256;SDS011;65074;50.436;8.672;2023-04-15T04:41:45;8.03;;;3.60;;
76256;SDS011;65074;50.436;8.672;2023-04-15T04:44:10;8.00;;;3.63;;
76256;SDS011;65074;50.436;8.672;2023-04-15T04:46:35;5.37;;;3.13;;
76256;SDS011;65074;50.436;8.672;2023-04-15T04:49:00;5.27;;;3.60;;
76256;SDS011;65074;50.436;8.672;2023-04-15T04:51:26;5.33;;;3.30;;
76256;SDS011;65074;50.436;8.672;2023-04-15T04:53:51;11.60;;;3.75;;
76256;SDS011;65074;50.436;8.672;2023-04-15T04:56:17;5.97;;;3.03;;
76256;SDS011;65074;50.436;8.672;2023-04-15T04:58:43;4.67;;;3.37;;
76256;SDS011;65074;50.436;8.672;2023-04-15T05:01:08;5.93;;;3.47;;
76256;SDS011;65074;50.436;8.672;2023-04-15T05:03:34;5.30;;;3.60;;
76256;SDS011;65074;50.436;8.672;2023-04-15T05:05:59;6.88;;;3.78;;
76256;SDS011;65074;50.436;8.672;2023-04-15T05:08:24;6.45;;;4.20;;
76256;SDS011;65074;50.436;8.672;2023-04-15T05:10:50;6.97;;;3.77;;
76256;SDS011;65074;50.436;8.672;2023-04-15T05:13:15;6.03;;;4.47;;
76256;SDS011;65074;50.436;8.672;2023-04-15T05:15:40;6.63;;;3.50;;
76256;SDS011;65074;50.436;8.672;2023-04-15T05:18:07;6.20;;;3.83;;
76256;SDS011;65074;50.436;8.672;2023-04-15T05:20:32;7.23;;;3.00;;
76256;SDS011;65074;50.436;8.672;2023-04-15T05:22:57;7.57;;;3.87;;
76256;SDS011;65074;50.436;8.672;2023-04-15T05:25:22;5.33;;;4.17;;
76256;SDS011;65074;50.436;8.672;2023-04-15T05:27:48;5.67;;;3.60;;
76256;SDS011;65074;50.436;8.672;2023-04-15T05:30:13;6.90;;;3.07;;
76256;SDS011;65074;50.436;8.672;2023-04-15T05:32:38;6.03;;;3.37;;
76256;SDS011;65074;50.436;8.672;2023-04-15T05:35:04;4.30;;;3.35;;
76256;SDS011;65074;50.436;8.672;2023-04-15T05:37:29;6.15;;;3.83;;
76256;SDS011;65074;50.436;8.672;2023-04-15T05:39:54;7.80;;;4.40;;
76256;SDS011;65074;50.436;8.672;2023-04-15T05:42:20;7.72;;;3.75;;
76256;SDS011;65074;50.436;8.672;2023-04-15T05:44:46;6.57;;;3.80;;
76256;SDS011;65074;50.436;8.672;2023-04-15T05:47:11;8.77;;;3.75;;
76256;SDS011;65074;50.436;8.672;2023-04-15T05:49:36;7.67;;;3.73;;
76256;SDS011;65074;50.436;8.672;2023-04-15T05:52:02;6.63;;;3.70;;
76256;SDS011;65074;50.436;8.672;2023-04-15T05:54:27;5.27;;;4.30;;
76256;SDS011;65074;50.436;8.672;2023-04-15T05:56:52;6.07;;;3.90;;
76256;SDS011;65074;50.436;8.672;2023-04-15T05:59:17;5.57;;;4.00;;
76256;SDS011;65074;50.436;8.672;2023-04-15T06:01:43;5.70;;;4.10;;
76256;SDS011;65074;50.436;8.672;2023-04-15T06:04:09;5.50;;;3.20;;
76256;SDS011;65074;50.436;8.672;2023-04-15T06:06:35;5.53;;;3.70;;
76256;SDS011;65074;50.436;8.672;2023-04-15T06:09:01;6.15;;;4.00;;
76256;SDS011;65074;50.436;8.672;2023-04-15T06:11:26;5.77;;;3.80;;
76256;SDS011;65074;50.436;8.672;2023-04-15T06:13:51;5.60;;;3.50;;
76256;SDS011;65074;50.436;8.672;2023-04-15T06:16:17;7.80;;;4.03;;
76256;SDS011;65074;50.436;8.672;2023-04-15T06:18:42;5.80;;;3.10;;
76256;SDS011;65074;50.436;8.672;2023-04-15T06:21:07;5.70;;;3.80;;
76256;SDS011;65074;50.436;8.672;2023-04-15T06:23:33;6.50;;;3.90;;
76256;SDS011;65074;50.436;8.672;2023-04-15T06:25:59;6.10;;;3.90;;
76256;SDS011;65074;50.436;8.672;2023-04-15T06:28:24;7.70;;;4.20;;
76256;SDS011;65074;50.436;8.672;2023-04-15T06:30:49;8.27;;;4.47;;
76256;SDS011;65074;50.436;8.672;2023-04-15T06:33:14;7.33;;;3.93;;
76256;SDS011;65074;50.436;8.672;2023-04-15T06:35:40;10.20;;;4.23;;
76256;SDS011;65074;50.436;8.672;2023-04-15T06:38:05;8.63;;;4.27;;
76256;SDS011;65074;50.436;8.672;2023-04-15T06:40:30;5.90;;;3.90;;
76256;SDS011;65074;50.436;8.672;2023-04-15T06:42:55;7.60;;;4.00;;
76256;SDS011;65074;50.436;8.672;2023-04-15T06:45:20;5.33;;;4.23;;
76256;SDS011;65074;50.436;8.672;2023-04-15T06:47:46;6.80;;;4.55;;
76256;SDS011;65074;50.436;8.672;2023-04-15T06:50:11;6.70;;;3.77;;
76256;SDS011;65074;50.436;8.672;2023-04-15T06:52:37;6.95;;;4.07;;
76256;SDS011;65074;50.436;8.672;2023-04-15T06:55:02;7.00;;;4.50;;
76256;SDS011;65074;50.436;8.672;2023-04-15T06:57:28;4.78;;;3.83;;
76256;SDS011;65074;50.436;8.672;2023-04-15T06:59:53;5.33;;;3.00;;
76256;SDS011;65074;50.436;8.672;2023-04-15T07:02:18;6.47;;;3.42;;
76256;SDS011;65074;50.436;8.672;2023-04-15T07:04:44;7.85;;;4.32;;
76256;SDS011;65074;50.436;8.672;2023-04-15T07:07:09;7.18;;;4.55;;
76256;SDS011;65074;50.436;8.672;2023-04-15T07:09:35;6.20;;;4.50;;
76256;SDS011;65074;50.436;8.672;2023-04-15T07:12:00;7.70;;;4.55;;
76256;SDS011;65074;50.436;8.672;2023-04-15T07:14:25;6.77;;;4.00;;
76256;SDS011;65074;50.436;8.672;2023-04-15T07:16:51;9.15;;;4.00;;
76256;SDS011;65074;50.436;8.672;2023-04-15T07:19:17;8.60;;;5.00;;
76256;SDS011;65074;50.436;8.672;2023-04-15T07:21:42;4.53;;;3.17;;
76256;SDS011;65074;50.436;8.672;2023-04-15T07:24:07;7.97;;;3.67;;
76256;SDS011;65074;50.436;8.672;2023-04-15T07:26:35;8.38;;;5.50;;
76256;SDS011;65074;50.436;8.672;2023-04-15T07:29:00;8.73;;;4.60;;
76256;SDS011;65074;50.436;8.672;2023-04-15T07:31:25;7.35;;;4.43;;
76256;SDS011;65074;50.436;8.672;2023-04-15T07:33:51;8.15;;;4.18;;
76256;SDS011;65074;50.436;8.672;2023-04-15T07:36:17;5.95;;;3.78;;
76256;SDS011;65074;50.436;8.672;2023-04-15T07:38:42;8.98;;;5.10;;
76256;SDS011;65074;50.436;8.672;2023-04-15T07:41:08;7.22;;;4.00;;
76256;SDS011;65074;50.436;8.672;2023-04-15T07:43:33;5.75;;;3.70;;
76256;SDS011;65074;50.436;8.672;2023-04-15T07:45:58;7.13;;;3.60;;
76256;SDS011;65074;50.436;8.672;2023-04-15T07:48:24;5.77;;;3.70;;
76256;SDS011;65074;50.436;8.672;2023-04-15T07:50:49;5.90;;;3.75;;
76256;SDS011;65074;50.436;8.672;2023-04-15T07:53:14;6.27;;;3.53;;
76256;SDS011;65074;50.436;8.672;2023-04-15T07:55:40;5.77;;;3.73;;
76256;SDS011;65074;50.436;8.672;2023-04-15T07:58:05;6.57;;;3.60;;
76256;SDS011;65074;50.436;8.672;2023-04-15T08:00:30;6.87;;;4.03;;
76256;SDS011;65074;50.436;8.672;2023-04-15T08:02:56;7.30;;;3.45;;
76256;SDS011;65074;50.436;8.672;2023-04-15T08:05:23;6.05;;;3.78;;
76256;SDS011;65074;50.436;8.672;2023-04-15T08:07:48;5.40;;;3.55;;
76256;SDS011;65074;50.436;8.672;2023-04-15T08:10:13;6.37;;;3.63;;
76256;SDS011;65074;50.436;8.672;2023-04-15T08:12:39;9.23;;;4.57;;
76256;SDS011;65074;50.436;8.672;2023-04-15T08:15:04;4.55;;;3.42;;
76256;SDS011;65074;50.436;8.672;2023-04-15T08:17:30;4.95;;;2.90;;
76256;SDS011;65074;50.436;8.672;2023-04-15T08:19:55;4.80;;;3.23;;
76256;SDS011;65074;50.436;8.672;2023-04-15T08:22:21;5.60;;;3.60;;
76256;SDS011;65074;50.436;8.672;2023-04-15T08:24:46;4.43;;;2.90;;
76256;SDS011;65074;50.436;8.672;2023-04-15T08:27:11;10.97;;;3.80;;
76256;SDS011;65074;50.436;8.672;2023-04-15T08:29:37;6.88;;;3.53;;
76256;SDS011;65074;50.436;8.672;2023-04-15T08:32:03;7.45;;;3.75;;
76256;SDS011;65074;50.436;8.672;2023-04-15T08:34:28;6.95;;;3.28;;
76256;SDS011;65074;50.436;8.672;2023-04-15T08:36:53;5.53;;;3.07;;
76256;SDS011;65074;50.436;8.672;2023-04-15T08:39:19;4.78;;;3.42;;
76256;SDS011;65074;50.436;8.672;2023-04-15T08:41:45;4.13;;;3.13;;
76256;SDS011;65074;50.436;8.672;2023-04-15T08:44:14;8.57;;;3.60;;
76256;SDS011;65074;50.436;8.672;2023-04-15T08:46:40;7.53;;;3.67;;
76256;SDS011;65074;50.436;8.672;2023-04-15T08:49:08;4.22;;;3.22;;
76256;SDS011;65074;50.436;8.672;2023-04-15T08:51:34;5.90;;;4.20;;
76256;SDS011;65074;50.436;8.672;2023-04-15T08:53:59;5.78;;;3.20;;
76256;SDS011;65074;50.436;8.672;2023-04-15T08:56:25;8.00;;;4.15;;
76256;SDS011;65074;50.436;8.672;2023-04-15T08:58:51;3.08;;;2.00;;
76256;SDS011;65074;50.436;8.672;2023-04-15T09:01:16;7.82;;;3.30;;
76256;SDS011;65074;50.436;8.672;2023-04-15T09:03:42;3.92;;;3.33;;
76256;SDS011;65074;50.436;8.672;2023-04-15T09:06:08;4.55;;;3.20;;
76256;SDS011;65074;50.436;8.672;2023-04-15T09:08:33;4.03;;;2.85;;
76256;SDS011;65074;50.436;8.672;2023-04-15T09:11:00;5.55;;;3.13;;
76256;SDS011;65074;50.436;8.672;2023-04-15T09:13:25;5.13;;;3.25;;
76256;SDS011;65074;50.436;8.672;2023-04-15T09:15:53;4.40;;;2.80;;
76256;SDS011;65074;50.436;8.672;2023-04-15T09:18:29;5.82;;;2.65;;
76256;SDS011;65074;50.436;8.672;2023-04-15T09:23:20;6.50;;;3.63;;
76256;SDS011;65074;50.436;8.672;2023-04-15T09:25:46;3.63;;;3.03;;
76256;SDS011;65074;50.436;8.672;2023-04-15T09:28:13;5.45;;;3.00;;
76256;SDS011;65074;50.436;8.672;2023-04-15T09:30:38;5.17;;;2.20;;
76256;SDS011;65074;50.436;8.672;2023-04-15T09:33:07;4.60;;;2.50;;
76256;SDS011;65074;50.436;8.672;2023-04-15T09:35:34;3.45;;;2.45;;
76256;SDS011;65074;50.436;8.672;2023-04-15T09:38:04;4.82;;;2.38;;
76256;SDS011;65074;50.436;8.672;2023-04-15T09:40:33;5.43;;;2.95;;
76256;SDS011;65074;50.436;8.672;2023-04-15T09:42:59;4.75;;;2.97;;
76256;SDS011;65074;50.436;8.672;2023-04-15T09:45:26;7.00;;;3.15;;
76256;SDS011;65074;50.436;8.672;2023-04-15T09:47:51;5.38;;;2.80;;
76256;SDS011;65074;50.436;8.672;2023-04-15T09:50:17;5.40;;;2.90;;
76256;SDS011;65074;50.436;8.672;2023-04-15T09:52:43;4.15;;;2.47;;
76256;SDS011;65074;50.436;8.672;2023-04-15T09:55:08;4.30;;;2.60;;
76256;SDS011;65074;50.436;8.672;2023-04-15T09:57:34;3.58;;;2.70;;
76256;SDS011;65074;50.436;8.672;2023-04-15T10:00:00;4.20;;;2.83;;
76256;SDS011;65074;50.436;8.672;2023-04-15T10:02:25;4.70;;;2.67;;
76256;SDS011;65074;50.436;8.672;2023-04-15T10:04:51;4.00;;;2.65;;
76256;SDS011;65074;50.436;8.672;2023-04-15T10:07:16;3.58;;;1.92;;
76256;SDS011;65074;50.436;8.672;2023-04-15T10:09:44;3.08;;;2.10;;
76256;SDS011;65074;50.436;8.672;2023-04-15T10:12:11;4.80;;;2.25;;
76256;SDS011;65074;50.436;8.672;2023-04-15T10:14:36;4.35;;;2.13;;
76256;SDS011;65074;50.436;8.672;2023-04-15T10:17:03;3.30;;;2.17;;
76256;SDS011;65074;50.436;8.672;2023-04-15T10:19:30;1.65;;;1.48;;
76256;SDS011;65074;50.436;8.672;2023-04-15T10:21:55;3.45;;;1.83;;
76256;SDS011;65074;50.436;8.672;2023-04-15T10:24:21;2.72;;;1.90;;
76256;SDS011;65074;50.436;8.672;2023-04-15T10:26:46;4.03;;;1.83;;
76256;SDS011;65074;50.436;8.672;2023-04-15T10:29:12;2.63;;;2.10;;
76256;SDS011;65074;50.436;8.672;2023-04-15T10:31:37;3.03;;;1.90;;
76256;SDS011;65074;50.436;8.672;2023-04-15T10:34:04;3.22;;;2.47;;
76256;SDS011;65074;50.436;8.672;2023-04-15T10:36:31;3.03;;;1.98;;
76256;SDS011;65074;50.436;8.672;2023-04-15T10:38:56;3.38;;;1.90;;
76256;SDS011;65074;50.436;8.672;2023-04-15T10:41:25;2.50;;;1.90;;
76256;SDS011;65074;50.436;8.672;2023-04-15T10:46:20;3.80;;;2.30;;
76256;SDS011;65074;50.436;8.672;2023-04-15T10:48:47;3.03;;;1.88;;
76256;SDS011;65074;50.436;8.672;2023-04-15T10:51:13;2.97;;;1.88;;
76256;SDS011;65074;50.436;8.672;2023-04-15T10:53:38;3.65;;;2.00;;
76256;SDS011;65074;50.436;8.672;2023-04-15T10:56:06;3.13;;;1.88;;
76256;SDS011;65074;50.436;8.672;2023-04-15T10:58:41;3.33;;;2.03;;
76256;SDS011;65074;50.436;8.672;2023-04-15T11:01:07;3.05;;;2.38;;
76256;SDS011;65074;50.436;8.672;2023-04-15T11:03:36;3.85;;;1.88;;
76256;SDS011;65074;50.436;8.672;2023-04-15T11:06:03;2.92;;;1.92;;
76256;SDS011;65074;50.436;8.672;2023-04-15T11:11:12;3.08;;;2.03;;
76256;SDS011;65074;50.436;8.672;2023-04-15T11:13:46;3.87;;;2.17;;
76256;SDS011;65074;50.436;8.672;2023-04-15T11:16:11;4.47;;;1.95;;
76256;SDS011;65074;50.436;8.672;2023-04-15T11:18:36;4.38;;;2.08;;
76256;SDS011;65074;50.436;8.672;2023-04-15T11:21:03;5.47;;;2.20;;
76256;SDS011;65074;50.436;8.672;2023-04-15T11:23:35;4.70;;;2.30;;
76256;SDS011;65074;50.436;8.672;2023-04-15T11:26:01;4.00;;;2.15;;
76256;SDS011;65074;50.436;8.672;2023-04-15T11:28:29;3.40;;;2.00;;
76256;SDS011;65074;50.436;8.672;2023-04-15T11:30:55;5.22;;;2.22;;
76256;SDS011;65074;50.436;8.672;2023-04-15T11:33:21;4.55;;;2.40;;
76256;SDS011;65074;50.436;8.672;2023-04-15T11:35:47;3.38;;;2.40;;
76256;SDS011;65074;50.436;8.672;2023-04-15T11:38:13;4.20;;;2.40;;
76256;SDS011;65074;50.436;8.672;2023-04-15T11:40:39;4.45;;;2.15;;
76256;SDS011;65074;50.436;8.672;2023-04-15T11:43:15;2.97;;;2.05;;
76256;SDS011;65074;50.436;8.672;2023-04-15T11:48:13;2.80;;;1.88;;
76256;SDS011;65074;50.436;8.672;2023-04-15T11:50:39;2.78;;;1.83;;
76256;SDS011;65074;50.436;8.672;2023-04-15T11:53:06;4.72;;;2.35;;
76256;SDS011;65074;50.436;8.672;2023-04-15T11:55:41;6.05;;;3.28;;
76256;SDS011;65074;50.436;8.672;2023-04-15T11:58:08;4.55;;;2.85;;
76256;SDS011;65074;50.436;8.672;2023-04-15T12:00:35;6.28;;;2.95;;
76256;SDS011;65074;50.436;8.672;2023-04-15T12:03:13;2.60;;;1.92;;
76256;SDS011;65074;50.436;8.672;2023-04-15T12:08:22;4.50;;;3.00;;
76256;SDS011;65074;50.436;8.672;2023-04-15T12:10:48;4.70;;;3.17;;
76256;SDS011;65074;50.436;8.672;2023-04-15T12:13:13;5.77;;;3.10;;
76256;SDS011;65074;50.436;8.672;2023-04-15T12:15:38;2.67;;;1.75;;
76256;SDS011;65074;50.436;8.672;2023-04-15T12:18:03;4.47;;;2.80;;
76256;SDS011;65074;50.436;8.672;2023-04-15T12:20:29;5.30;;;2.88;;
76256;SDS011;65074;50.436;8.672;2023-04-15T12:23:03;3.45;;;2.60;;
76256;SDS011;65074;50.436;8.672;2023-04-15T12:25:33;4.60;;;2.00;;
76256;SDS011;65074;50.436;8.672;2023-04-15T12:27:58;3.40;;;2.20;;
76256;SDS011;65074;50.436;8.672;2023-04-15T12:30:23;3.40;;;2.15;;
76256;SDS011;65074;50.436;8.672;2023-04-15T12:32:48;3.60;;;2.20;;
76256;SDS011;65074;50.436;8.672;2023-04-15T12:35:15;3.17;;;2.05;;
76256;SDS011;65074;50.436;8.672;2023-04-15T12:37:43;3.80;;;2.13;;
76256;SDS011;65074;50.436;8.672;2023-04-15T12:40:08;2.63;;;1.77;;
76256;SDS011;65074;50.436;8.672;2023-04-15T12:42:34;2.30;;;1.60;;
76256;SDS011;65074;50.436;8.672;2023-04-15T12:44:59;3.60;;;1.75;;
76256;SDS011;65074;50.436;8.672;2023-04-15T12:47:24;3.40;;;2.40;;
76256;SDS011;65074;50.436;8.672;2023-04-15T12:49:50;4.13;;;2.22;;
76256;SDS011;65074;50.436;8.672;2023-04-15T12:52:15;3.45;;;2.05;;
76256;SDS011;65074;50.436;8.672;2023-04-15T12:54:40;2.67;;;1.70;;
76256;SDS011;65074;50.436;8.672;2023-04-15T12:57:06;3.23;;;1.80;;
76256;SDS011;65074;50.436;8.672;2023-04-15T12:59:31;2.90;;;1.88;;
76256;SDS011;65074;50.436;8.672;2023-04-15T13:01:56;2.23;;;1.87;;
76256;SDS011;65074;50.436;8.672;2023-04-15T13:04:24;3.45;;;1.90;;
76256;SDS011;65074;50.436;8.672;2023-04-15T13:06:49;2.05;;;1.60;;
76256;SDS011;65074;50.436;8.672;2023-04-15T13:09:14;3.00;;;1.90;;
76256;SDS011;65074;50.436;8.672;2023-04-15T13:11:40;2.42;;;1.52;;
76256;SDS011;65074;50.436;8.672;2023-04-15T13:14:07;3.47;;;2.00;;
76256;SDS011;65074;50.436;8.672;2023-04-15T13:16:32;3.17;;;2.10;;
76256;SDS011;65074;50.436;8.672;2023-04-15T13:18:58;4.15;;;1.70;;
76256;SDS011;65074;50.436;8.672;2023-04-15T13:21:23;2.85;;;2.03;;
76256;SDS011;65074;50.436;8.672;2023-04-15T13:23:49;2.95;;;1.98;;
76256;SDS011;65074;50.436;8.672;2023-04-15T13:26:17;2.15;;;1.73;;
76256;SDS011;65074;50.436;8.672;2023-04-15T13:28:42;2.65;;;1.75;;
76256;SDS011;65074;50.436;8.672;2023-04-15T13:31:08;4.28;;;2.33;;
76256;SDS011;65074;50.436;8.672;2023-04-15T13:33:33;2.90;;;1.85;;
76256;SDS011;65074;50.436;8.672;2023-04-15T13:35:58;2.50;;;1.53;;
76256;SDS011;65074;50.436;8.672;2023-04-15T13:38:24;2.23;;;1.80;;
76256;SDS011;65074;50.436;8.672;2023-04-15T13:40:49;3.63;;;2.53;;
76256;SDS011;65074;50.436;8.672;2023-04-15T13:43:15;3.10;;;2.00;;
76256;SDS011;65074;50.436;8.672;2023-04-15T13:45:41;4.35;;;2.17;;
76256;SDS011;65074;50.436;8.672;2023-04-15T13:48:06;4.30;;;2.80;;
76256;SDS011;65074;50.436;8.672;2023-04-15T13:50:32;3.23;;;2.40;;
76256;SDS011;65074;50.436;8.672;2023-04-15T13:52:57;4.07;;;3.10;;
76256;SDS011;65074;50.436;8.672;2023-04-15T13:55:22;3.50;;;2.57;;
76256;SDS011;65074;50.436;8.672;2023-04-15T13:57:47;3.80;;;2.47;;
76256;SDS011;65074;50.436;8.672;2023-04-15T14:00:14;3.67;;;2.25;;
76256;SDS011;65074;50.436;8.672;2023-04-15T14:02:39;4.43;;;2.42;;
76256;SDS011;65074;50.436;8.672;2023-04-15T14:05:06;3.90;;;2.22;;
76256;SDS011;65074;50.436;8.672;2023-04-15T14:07:31;3.97;;;2.30;;
76256;SDS011;65074;50.436;8.672;2023-04-15T14:09:56;7.23;;;2.40;;
76256;SDS011;65074;50.436;8.672;2023-04-15T14:12:21;3.70;;;2.73;;
76256;SDS011;65074;50.436;8.672;2023-04-15T14:14:47;3.17;;;1.80;;
76256;SDS011;65074;50.436;8.672;2023-04-15T14:17:12;2.53;;;1.80;;
76256;SDS011;65074;50.436;8.672;2023-04-15T14:19:37;2.15;;;1.70;;
76256;SDS011;65074;50.436;8.672;2023-04-15T14:22:03;3.38;;;1.70;;
76256;SDS011;65074;50.436;8.672;2023-04-15T14:24:28;3.43;;;2.20;;
76256;SDS011;65074;50.436;8.672;2023-04-15T14:26:53;2.10;;;1.40;;
76256;SDS011;65074;50.436;8.672;2023-04-15T14:29:18;2.37;;;1.67;;
76256;SDS011;65074;50.436;8.672;2023-04-15T14:31:44;2.58;;;1.48;;
76256;SDS011;65074;50.436;8.672;2023-04-15T14:34:10;2.75;;;1.63;;
76256;SDS011;65074;50.436;8.672;2023-04-15T14:36:35;2.13;;;1.60;;
76256;SDS011;65074;50.436;8.672;2023-04-15T14:39:00;2.33;;;1.50;;
76256;SDS011;65074;50.436;8.672;2023-04-15T14:41:26;2.53;;;1.52;;
76256;SDS011;65074;50.436;8.672;2023-04-15T14:43:51;2.00;;;1.53;;
76256;SDS011;65074;50.436;8.672;2023-04-15T14:46:17;1.40;;;1.23;;
76256;SDS011;65074;50.436;8.672;2023-04-15T14:48:42;1.87;;;1.33;;
76256;SDS011;65074;50.436;8.672;2023-04-15T14:51:07;2.40;;;1.10;;
76256;SDS011;65074;50.436;8.672;2023-04-15T14:53:32;2.47;;;1.23;;